sensor_id;sensor_type;location;lat;lon;timestamp;temperature;humidity
75170;SHT31;63749;49.186;9.222;2022-12-18T00:01:01;-9.47;91.94
75170;SHT31;63749;49.186;9.222;2022-12-18T00:03:37;-9.42;92.08
75170;SHT31;63749;49.186;9.222;2022-12-18T00:06:02;-9.38;91.84
75170;SHT31;63749;49.186;9.222;2022-12-18T00:08:28;-9.39;91.93
75170;SHT31;63749;49.186;9.222;2022-12-18T00:10:54;-9.40;91.98
75170;SHT31;63749;49.186;9.222;2022-12-18T00:13:19;-9.38;92.00
75170;SHT31;63749;49.186;9.222;2022-12-18T00:15:44;-9.46;91.63
75170;SHT31;63749;49.186;9.222;2022-12-18T00:18:10;-9.53;91.42
75170;SHT31;63749;49.186;9.222;2022-12-18T00:20:37;-9.40;92.01
75170;SHT31;63749;49.186;9.222;2022-12-18T00:23:02;-9.42;91.77
75170;SHT31;63749;49.186;9.222;2022-12-18T00:25:27;-9.46;91.66
75170;SHT31;63749;49.186;9.222;2022-12-18T00:27:53;-9.49;92.05
75170;SHT31;63749;49.186;9.222;2022-12-18T00:30:18;-9.50;92.13
75170;SHT31;63749;49.186;9.222;2022-12-18T00:32:43;-9.56;91.94
75170;SHT31;63749;49.186;9.222;2022-12-18T00:35:09;-9.43;92.70
75170;SHT31;63749;49.186;9.222;2022-12-18T00:37:34;-9.50;91.82
75170;SHT31;63749;49.186;9.222;2022-12-18T00:39:59;-9.50;92.07
75170;SHT31;63749;49.186;9.222;2022-12-18T00:42:25;-9.49;92.50
75170;SHT31;63749;49.186;9.222;2022-12-18T00:45:09;-9.52;92.29
75170;SHT31;63749;49.186;9.222;2022-12-18T00:47:35;-9.46;92.24
75170;SHT31;63749;49.186;9.222;2022-12-18T00:50:00;-9.40;92.27
75170;SHT31;63749;49.186;9.222;2022-12-18T00:52:27;-9.36;92.21
75170;SHT31;63749;49.186;9.222;2022-12-18T00:54:52;-9.38;91.99
75170;SHT31;63749;49.186;9.222;2022-12-18T00:57:17;-9.36;91.96
75170;SHT31;63749;49.186;9.222;2022-12-18T00:59:43;-9.29;92.16
75170;SHT31;63749;49.186;9.222;2022-12-18T01:02:08;-9.28;91.85
75170;SHT31;63749;49.186;9.222;2022-12-18T01:04:34;-9.25;91.94
75170;SHT31;63749;49.186;9.222;2022-12-18T01:06:59;-9.18;91.94
75170;SHT31;63749;49.186;9.222;2022-12-18T01:09:24;-9.15;91.67
75170;SHT31;63749;49.186;9.222;2022-12-18T01:11:50;-9.14;91.49
75170;SHT31;63749;49.186;9.222;2022-12-18T01:14:15;-9.14;91.48
75170;SHT31;63749;49.186;9.222;2022-12-18T01:16:40;-9.01;92.19
75170;SHT31;63749;49.186;9.222;2022-12-18T01:19:06;-8.92;91.85
75170;SHT31;63749;49.186;9.222;2022-12-18T01:21:31;-8.98;91.54
75170;SHT31;63749;49.186;9.222;2022-12-18T01:23:56;-9.01;91.63
75170;SHT31;63749;49.186;9.222;2022-12-18T01:26:22;-9.02;91.18
75170;SHT31;63749;49.186;9.222;2022-12-18T01:28:48;-9.05;91.10
75170;SHT31;63749;49.186;9.222;2022-12-18T01:31:17;-9.12;90.84
75170;SHT31;63749;49.186;9.222;2022-12-18T01:33:43;-9.12;91.47
75170;SHT31;63749;49.186;9.222;2022-12-18T01:36:21;-9.14;91.51
75170;SHT31;63749;49.186;9.222;2022-12-18T01:38:47;-9.08;92.00
75170;SHT31;63749;49.186;9.222;2022-12-18T01:41:13;-9.00;91.93
75170;SHT31;63749;49.186;9.222;2022-12-18T01:43:54;-9.00;91.80
75170;SHT31;63749;49.186;9.222;2022-12-18T01:46:22;-9.09;91.09
75170;SHT31;63749;49.186;9.222;2022-12-18T01:48:56;-9.01;92.10
75170;SHT31;63749;49.186;9.222;2022-12-18T01:51:22;-9.02;91.43
75170;SHT31;63749;49.186;9.222;2022-12-18T01:53:49;-9.12;90.91
75170;SHT31;63749;49.186;9.222;2022-12-18T01:56:16;-9.19;90.56
75170;SHT31;63749;49.186;9.222;2022-12-18T01:58:56;-9.25;90.95
75170;SHT31;63749;49.186;9.222;2022-12-18T02:01:24;-9.33;91.52
75170;SHT31;63749;49.186;9.222;2022-12-18T02:03:50;-9.33;91.53
75170;SHT31;63749;49.186;9.222;2022-12-18T02:06:31;-9.36;91.22
75170;SHT31;63749;49.186;9.222;2022-12-18T02:14:41;-9.33;91.42
75170;SHT31;63749;49.186;9.222;2022-12-18T02:20:28;-9.26;92.07
75170;SHT31;63749;49.186;9.222;2022-12-18T02:25:59;-9.25;91.82
75170;SHT31;63749;49.186;9.222;2022-12-18T02:28:30;-9.18;91.76
75170;SHT31;63749;49.186;9.222;2022-12-18T02:30:58;-9.25;91.55
75170;SHT31;63749;49.186;9.222;2022-12-18T02:33:27;-9.26;91.85
75170;SHT31;63749;49.186;9.222;2022-12-18T02:35:54;-9.36;91.45
75170;SHT31;63749;49.186;9.222;2022-12-18T02:38:20;-9.36;91.55
75170;SHT31;63749;49.186;9.222;2022-12-18T02:40:46;-9.35;91.69
75170;SHT31;63749;49.186;9.222;2022-12-18T02:43:14;-9.36;91.34
75170;SHT31;63749;49.186;9.222;2022-12-18T02:45:56;-9.29;92.22
75170;SHT31;63749;49.186;9.222;2022-12-18T02:48:30;-9.32;91.79
75170;SHT31;63749;49.186;9.222;2022-12-18T02:53:35;-9.33;91.80
75170;SHT31;63749;49.186;9.222;2022-12-18T02:56:33;-9.38;91.40
75170;SHT31;63749;49.186;9.222;2022-12-18T02:59:09;-9.44;90.72
75170;SHT31;63749;49.186;9.222;2022-12-18T03:01:51;-9.43;91.73
75170;SHT31;63749;49.186;9.222;2022-12-18T03:04:27;-9.44;91.58
75170;SHT31;63749;49.186;9.222;2022-12-18T03:06:58;-9.47;91.09
75170;SHT31;63749;49.186;9.222;2022-12-18T03:09:40;-9.43;92.08
75170;SHT31;63749;49.186;9.222;2022-12-18T03:12:15;-9.46;91.53
75170;SHT31;63749;49.186;9.222;2022-12-18T03:17:42;-9.49;91.31
75170;SHT31;63749;49.186;9.222;2022-12-18T03:20:14;-9.49;90.96
75170;SHT31;63749;49.186;9.222;2022-12-18T03:22:41;-9.53;91.02
75170;SHT31;63749;49.186;9.222;2022-12-18T03:25:11;-9.53;91.63
75170;SHT31;63749;49.186;9.222;2022-12-18T03:27:42;-9.53;91.69
75170;SHT31;63749;49.186;9.222;2022-12-18T03:30:10;-9.47;91.82
75170;SHT31;63749;49.186;9.222;2022-12-18T03:32:58;-9.42;91.57
75170;SHT31;63749;49.186;9.222;2022-12-18T03:35:30;-9.53;90.80
75170;SHT31;63749;49.186;9.222;2022-12-18T03:37:57;-9.63;90.59
75170;SHT31;63749;49.186;9.222;2022-12-18T03:40:29;-9.60;91.68
75170;SHT31;63749;49.186;9.222;2022-12-18T03:43:03;-9.64;91.07
75170;SHT31;63749;49.186;9.222;2022-12-18T03:45:39;-9.71;90.90
75170;SHT31;63749;49.186;9.222;2022-12-18T03:55:52;-9.70;91.68
75170;SHT31;63749;49.186;9.222;2022-12-18T03:58:21;-9.73;91.82
75170;SHT31;63749;49.186;9.222;2022-12-18T04:00:49;-9.71;91.97
75170;SHT31;63749;49.186;9.222;2022-12-18T04:03:17;-9.74;91.83
75170;SHT31;63749;49.186;9.222;2022-12-18T04:05:43;-9.74;92.31
75170;SHT31;63749;49.186;9.222;2022-12-18T04:08:10;-9.71;92.33
75170;SHT31;63749;49.186;9.222;2022-12-18T04:10:36;-9.66;92.25
75170;SHT31;63749;49.186;9.222;2022-12-18T04:13:01;-9.71;92.02
75170;SHT31;63749;49.186;9.222;2022-12-18T04:15:27;-9.73;91.66
75170;SHT31;63749;49.186;9.222;2022-12-18T04:17:52;-9.78;91.75
75170;SHT31;63749;49.186;9.222;2022-12-18T04:20:17;-9.77;92.03
75170;SHT31;63749;49.186;9.222;2022-12-18T04:22:43;-9.71;92.29
75170;SHT31;63749;49.186;9.222;2022-12-18T04:25:13;-9.70;92.10
75170;SHT31;63749;49.186;9.222;2022-12-18T04:27:38;-9.74;91.68
75170;SHT31;63749;49.186;9.222;2022-12-18T04:30:04;-9.74;91.83
75170;SHT31;63749;49.186;9.222;2022-12-18T04:32:30;-9.78;91.36
75170;SHT31;63749;49.186;9.222;2022-12-18T04:34:55;-9.75;92.00
75170;SHT31;63749;49.186;9.222;2022-12-18T04:37:21;-9.78;91.44
75170;SHT31;63749;49.186;9.222;2022-12-18T04:39:46;-9.78;91.77
75170;SHT31;63749;49.186;9.222;2022-12-18T04:42:12;-9.84;91.33
75170;SHT31;63749;49.186;9.222;2022-12-18T04:44:37;-9.84;91.73
75170;SHT31;63749;49.186;9.222;2022-12-18T04:47:02;-9.85;91.99
75170;SHT31;63749;49.186;9.222;2022-12-18T04:49:28;-9.89;92.19
75170;SHT31;63749;49.186;9.222;2022-12-18T04:51:53;-9.84;92.01
75170;SHT31;63749;49.186;9.222;2022-12-18T04:54:21;-9.90;91.59
75170;SHT31;63749;49.186;9.222;2022-12-18T04:56:47;-9.81;92.15
75170;SHT31;63749;49.186;9.222;2022-12-18T04:59:12;-9.91;91.55
75170;SHT31;63749;49.186;9.222;2022-12-18T05:01:37;-9.85;91.76
75170;SHT31;63749;49.186;9.222;2022-12-18T05:04:03;-9.84;92.08
75170;SHT31;63749;49.186;9.222;2022-12-18T05:06:28;-9.84;91.69
75170;SHT31;63749;49.186;9.222;2022-12-18T05:08:54;-9.84;91.66
75170;SHT31;63749;49.186;9.222;2022-12-18T05:11:19;-9.95;90.71
75170;SHT31;63749;49.186;9.222;2022-12-18T05:13:45;-9.91;91.14
75170;SHT31;63749;49.186;9.222;2022-12-18T05:16:11;-10.00;91.18
75170;SHT31;63749;49.186;9.222;2022-12-18T05:18:37;-10.00;91.81
75170;SHT31;63749;49.186;9.222;2022-12-18T05:21:02;-10.01;92.16
75170;SHT31;63749;49.186;9.222;2022-12-18T05:23:28;-10.05;91.40
75170;SHT31;63749;49.186;9.222;2022-12-18T05:25:55;-10.07;91.04
75170;SHT31;63749;49.186;9.222;2022-12-18T05:28:23;-10.10;91.20
75170;SHT31;63749;49.186;9.222;2022-12-18T05:30:53;-10.07;92.04
75170;SHT31;63749;49.186;9.222;2022-12-18T05:33:20;-10.04;91.85
75170;SHT31;63749;49.186;9.222;2022-12-18T05:35:57;-10.02;91.63
75170;SHT31;63749;49.186;9.222;2022-12-18T05:38:24;-10.04;91.94
75170;SHT31;63749;49.186;9.222;2022-12-18T05:40:51;-10.08;91.71
75170;SHT31;63749;49.186;9.222;2022-12-18T05:43:18;-10.05;91.74
75170;SHT31;63749;49.186;9.222;2022-12-18T05:45:43;-9.94;92.37
75170;SHT31;63749;49.186;9.222;2022-12-18T05:48:13;-9.98;91.89
75170;SHT31;63749;49.186;9.222;2022-12-18T05:50:40;-9.97;92.05
75170;SHT31;63749;49.186;9.222;2022-12-18T05:53:06;-9.98;91.95
75170;SHT31;63749;49.186;9.222;2022-12-18T05:55:35;-9.95;91.77
75170;SHT31;63749;49.186;9.222;2022-12-18T05:58:02;-9.94;91.70
75170;SHT31;63749;49.186;9.222;2022-12-18T06:00:28;-9.94;91.28
75170;SHT31;63749;49.186;9.222;2022-12-18T06:02:53;-9.89;91.92
75170;SHT31;63749;49.186;9.222;2022-12-18T06:05:19;-9.93;91.79
75170;SHT31;63749;49.186;9.222;2022-12-18T06:07:44;-9.91;91.73
75170;SHT31;63749;49.186;9.222;2022-12-18T06:10:10;-9.85;91.53
75170;SHT31;63749;49.186;9.222;2022-12-18T06:12:36;-9.97;90.81
75170;SHT31;63749;49.186;9.222;2022-12-18T06:15:01;-9.94;91.55
75170;SHT31;63749;49.186;9.222;2022-12-18T06:17:28;-9.91;92.12
75170;SHT31;63749;49.186;9.222;2022-12-18T06:19:54;-9.90;91.99
75170;SHT31;63749;49.186;9.222;2022-12-18T06:22:21;-9.95;91.80
75170;SHT31;63749;49.186;9.222;2022-12-18T06:24:46;-10.00;92.16
75170;SHT31;63749;49.186;9.222;2022-12-18T06:27:12;-10.02;91.67
75170;SHT31;63749;49.186;9.222;2022-12-18T06:29:37;-10.00;92.34
75170;SHT31;63749;49.186;9.222;2022-12-18T06:32:02;-10.07;91.57
75170;SHT31;63749;49.186;9.222;2022-12-18T06:34:31;-10.11;91.21
75170;SHT31;63749;49.186;9.222;2022-12-18T06:36:56;-10.11;91.94
75170;SHT31;63749;49.186;9.222;2022-12-18T06:39:21;-10.10;91.39
75170;SHT31;63749;49.186;9.222;2022-12-18T06:41:47;-10.11;90.87
75170;SHT31;63749;49.186;9.222;2022-12-18T06:44:12;-10.00;91.81
75170;SHT31;63749;49.186;9.222;2022-12-18T06:46:37;-10.02;91.03
75170;SHT31;63749;49.186;9.222;2022-12-18T06:49:03;-10.04;91.62
75170;SHT31;63749;49.186;9.222;2022-12-18T06:51:28;-10.00;92.06
75170;SHT31;63749;49.186;9.222;2022-12-18T06:53:53;-10.01;91.45
75170;SHT31;63749;49.186;9.222;2022-12-18T06:56:19;-10.04;91.18
75170;SHT31;63749;49.186;9.222;2022-12-18T06:58:44;-10.04;91.16
75170;SHT31;63749;49.186;9.222;2022-12-18T07:01:11;-10.04;91.23
75170;SHT31;63749;49.186;9.222;2022-12-18T07:03:38;-10.02;91.33
75170;SHT31;63749;49.186;9.222;2022-12-18T07:06:03;-9.98;91.88
75170;SHT31;63749;49.186;9.222;2022-12-18T07:08:30;-9.94;91.62
75170;SHT31;63749;49.186;9.222;2022-12-18T07:10:56;-9.94;91.63
75170;SHT31;63749;49.186;9.222;2022-12-18T07:13:22;-9.91;91.24
75170;SHT31;63749;49.186;9.222;2022-12-18T07:15:47;-9.89;91.30
75170;SHT31;63749;49.186;9.222;2022-12-18T07:18:13;-9.81;91.35
75170;SHT31;63749;49.186;9.222;2022-12-18T07:20:38;-9.83;91.25
75170;SHT31;63749;49.186;9.222;2022-12-18T07:23:04;-9.73;91.72
75170;SHT31;63749;49.186;9.222;2022-12-18T07:25:33;-9.71;91.36
75170;SHT31;63749;49.186;9.222;2022-12-18T07:27:59;-9.64;91.18
75170;SHT31;63749;49.186;9.222;2022-12-18T07:30:24;-9.64;91.17
75170;SHT31;63749;49.186;9.222;2022-12-18T07:32:50;-9.62;91.36
75170;SHT31;63749;49.186;9.222;2022-12-18T07:35:15;-9.66;91.02
75170;SHT31;63749;49.186;9.222;2022-12-18T07:37:40;-9.50;90.97
75170;SHT31;63749;49.186;9.222;2022-12-18T07:40:06;-9.47;90.43
75170;SHT31;63749;49.186;9.222;2022-12-18T07:42:32;-9.42;90.30
75170;SHT31;63749;49.186;9.222;2022-12-18T07:44:58;-9.39;90.06
75170;SHT31;63749;49.186;9.222;2022-12-18T07:47:24;-9.35;89.75
75170;SHT31;63749;49.186;9.222;2022-12-18T07:49:50;-9.36;89.47
75170;SHT31;63749;49.186;9.222;2022-12-18T07:52:15;-9.33;89.53
75170;SHT31;63749;49.186;9.222;2022-12-18T07:54:41;-9.31;89.38
75170;SHT31;63749;49.186;9.222;2022-12-18T07:57:07;-9.25;89.37
75170;SHT31;63749;49.186;9.222;2022-12-18T07:59:32;-9.23;88.92
75170;SHT31;63749;49.186;9.222;2022-12-18T08:01:58;-9.22;89.38
75170;SHT31;63749;49.186;9.222;2022-12-18T08:04:24;-9.15;89.18
75170;SHT31;63749;49.186;9.222;2022-12-18T08:06:49;-9.05;89.29
75170;SHT31;63749;49.186;9.222;2022-12-18T08:09:14;-8.95;89.25
75170;SHT31;63749;49.186;9.222;2022-12-18T08:11:40;-8.92;88.84
75170;SHT31;63749;49.186;9.222;2022-12-18T08:14:05;-8.73;89.66
75170;SHT31;63749;49.186;9.222;2022-12-18T08:16:30;-8.56;89.52
75170;SHT31;63749;49.186;9.222;2022-12-18T08:18:56;-8.49;88.59
75170;SHT31;63749;49.186;9.222;2022-12-18T08:21:27;-8.44;88.48
75170;SHT31;63749;49.186;9.222;2022-12-18T08:23:53;-8.39;88.68
75170;SHT31;63749;49.186;9.222;2022-12-18T08:26:20;-8.30;88.68
75170;SHT31;63749;49.186;9.222;2022-12-18T08:28:45;-8.15;88.36
75170;SHT31;63749;49.186;9.222;2022-12-18T08:31:11;-8.03;88.14
75170;SHT31;63749;49.186;9.222;2022-12-18T08:33:37;-7.94;87.86
75170;SHT31;63749;49.186;9.222;2022-12-18T08:36:04;-7.88;87.44
75170;SHT31;63749;49.186;9.222;2022-12-18T08:38:31;-7.82;87.60
75170;SHT31;63749;49.186;9.222;2022-12-18T08:41:05;-7.70;87.41
75170;SHT31;63749;49.186;9.222;2022-12-18T08:43:30;-7.63;87.39
75170;SHT31;63749;49.186;9.222;2022-12-18T08:46:18;-7.48;87.44
75170;SHT31;63749;49.186;9.222;2022-12-18T08:48:44;-7.42;87.52
75170;SHT31;63749;49.186;9.222;2022-12-18T08:51:09;-7.29;87.18
75170;SHT31;63749;49.186;9.222;2022-12-18T08:53:35;-7.19;87.38
75170;SHT31;63749;49.186;9.222;2022-12-18T08:56:01;-7.15;87.00
75170;SHT31;63749;49.186;9.222;2022-12-18T08:58:27;-7.12;86.99
75170;SHT31;63749;49.186;9.222;2022-12-18T09:00:53;-6.85;88.02
75170;SHT31;63749;49.186;9.222;2022-12-18T09:03:19;-6.82;86.91
75170;SHT31;63749;49.186;9.222;2022-12-18T09:05:47;-6.77;86.56
75170;SHT31;63749;49.186;9.222;2022-12-18T09:08:13;-6.71;86.62
75170;SHT31;63749;49.186;9.222;2022-12-18T09:10:43;-6.67;86.65
75170;SHT31;63749;49.186;9.222;2022-12-18T09:13:12;-6.58;86.86
75170;SHT31;63749;49.186;9.222;2022-12-18T09:15:42;-6.47;86.32
75170;SHT31;63749;49.186;9.222;2022-12-18T09:18:08;-6.44;85.83
75170;SHT31;63749;49.186;9.222;2022-12-18T09:20:35;-6.37;86.05
75170;SHT31;63749;49.186;9.222;2022-12-18T09:23:00;-6.24;86.06
75170;SHT31;63749;49.186;9.222;2022-12-18T09:25:26;-6.13;85.80
75170;SHT31;63749;49.186;9.222;2022-12-18T09:27:56;-5.96;85.37
75170;SHT31;63749;49.186;9.222;2022-12-18T09:30:22;-5.79;87.65
75170;SHT31;63749;49.186;9.222;2022-12-18T09:32:47;-3.54;99.50
75170;SHT31;63749;49.186;9.222;2022-12-18T09:35:12;-1.71;99.65
75170;SHT31;63749;49.186;9.222;2022-12-18T09:37:38;-2.04;97.05
75170;SHT31;63749;49.186;9.222;2022-12-18T09:40:04;-1.62;83.14
75170;SHT31;63749;49.186;9.222;2022-12-18T09:42:29;-3.03;80.18
75170;SHT31;63749;49.186;9.222;2022-12-18T09:44:55;-3.38;81.28
75170;SHT31;63749;49.186;9.222;2022-12-18T09:47:30;-2.99;85.48
75170;SHT31;63749;49.186;9.222;2022-12-18T09:50:03;-2.63;83.70
75170;SHT31;63749;49.186;9.222;2022-12-18T09:55:25;-2.62;81.00
75170;SHT31;63749;49.186;9.222;2022-12-18T09:57:57;-2.73;79.40
75170;SHT31;63749;49.186;9.222;2022-12-18T10:00:26;-1.98;79.40
75170;SHT31;63749;49.186;9.222;2022-12-18T10:02:53;-2.58;78.86
75170;SHT31;63749;49.186;9.222;2022-12-18T10:05:40;-1.63;81.35
75170;SHT31;63749;49.186;9.222;2022-12-18T10:11:15;-3.01;79.10
75170;SHT31;63749;49.186;9.222;2022-12-18T10:13:49;-3.10;80.05
75170;SHT31;63749;49.186;9.222;2022-12-18T10:16:47;-3.22;80.04
75170;SHT31;63749;49.186;9.222;2022-12-18T10:25:10;-3.21;79.97
75170;SHT31;63749;49.186;9.222;2022-12-18T10:27:39;-3.20;80.08
75170;SHT31;63749;49.186;9.222;2022-12-18T10:30:13;-3.12;79.63
75170;SHT31;63749;49.186;9.222;2022-12-18T10:32:39;-3.21;79.64
75170;SHT31;63749;49.186;9.222;2022-12-18T10:35:04;-2.97;80.15
75170;SHT31;63749;49.186;9.222;2022-12-18T10:37:30;-2.96;79.02
75170;SHT31;63749;49.186;9.222;2022-12-18T10:40:15;-2.84;79.88
75170;SHT31;63749;49.186;9.222;2022-12-18T10:42:41;-2.73;79.66
75170;SHT31;63749;49.186;9.222;2022-12-18T10:45:15;-2.79;79.02
75170;SHT31;63749;49.186;9.222;2022-12-18T10:47:46;-2.70;79.76
75170;SHT31;63749;49.186;9.222;2022-12-18T10:50:33;-2.62;79.12
75170;SHT31;63749;49.186;9.222;2022-12-18T10:53:01;-2.44;78.80
75170;SHT31;63749;49.186;9.222;2022-12-18T10:55:35;-2.32;78.82
75170;SHT31;63749;49.186;9.222;2022-12-18T10:58:23;-2.10;76.76
75170;SHT31;63749;49.186;9.222;2022-12-18T11:01:02;-2.10;77.40
75170;SHT31;63749;49.186;9.222;2022-12-18T11:03:34;-1.95;76.80
75170;SHT31;63749;49.186;9.222;2022-12-18T11:06:26;-1.98;76.77
75170;SHT31;63749;49.186;9.222;2022-12-18T11:09:05;-1.90;76.61
75170;SHT31;63749;49.186;9.222;2022-12-18T11:11:32;-1.81;76.73
75170;SHT31;63749;49.186;9.222;2022-12-18T11:14:20;-1.67;75.98
75170;SHT31;63749;49.186;9.222;2022-12-18T11:16:47;-1.59;75.01
75170;SHT31;63749;49.186;9.222;2022-12-18T11:21:46;-1.49;75.71
75170;SHT31;63749;49.186;9.222;2022-12-18T11:24:35;-1.55;75.92
75170;SHT31;63749;49.186;9.222;2022-12-18T11:27:03;-1.50;75.23
75170;SHT31;63749;49.186;9.222;2022-12-18T11:29:37;-1.56;75.85
75170;SHT31;63749;49.186;9.222;2022-12-18T11:32:32;-1.48;75.85
75170;SHT31;63749;49.186;9.222;2022-12-18T11:35:11;-1.56;76.05
75170;SHT31;63749;49.186;9.222;2022-12-18T11:37:42;-1.62;75.23
75170;SHT31;63749;49.186;9.222;2022-12-18T11:40:18;-1.42;76.04
75170;SHT31;63749;49.186;9.222;2022-12-18T11:42:53;-1.31;74.57
75170;SHT31;63749;49.186;9.222;2022-12-18T11:45:31;-1.13;75.65
75170;SHT31;63749;49.186;9.222;2022-12-18T11:48:16;-1.07;75.51
75170;SHT31;63749;49.186;9.222;2022-12-18T11:50:51;-1.01;74.72
75170;SHT31;63749;49.186;9.222;2022-12-18T11:53:17;-0.92;74.44
75170;SHT31;63749;49.186;9.222;2022-12-18T12:18:00;-0.63;73.54
75170;SHT31;63749;49.186;9.222;2022-12-18T12:34:13;-0.30;73.64
75170;SHT31;63749;49.186;9.222;2022-12-18T12:39:45;-0.42;73.03
75170;SHT31;63749;49.186;9.222;2022-12-18T12:42:38;-0.30;73.79
75170;SHT31;63749;49.186;9.222;2022-12-18T12:45:33;-0.30;72.68
75170;SHT31;63749;49.186;9.222;2022-12-18T12:48:02;-0.36;73.73
75170;SHT31;63749;49.186;9.222;2022-12-18T12:50:32;-0.25;73.89
75170;SHT31;63749;49.186;9.222;2022-12-18T12:52:59;-0.39;74.16
75170;SHT31;63749;49.186;9.222;2022-12-18T12:55:27;-0.39;74.25
75170;SHT31;63749;49.186;9.222;2022-12-18T12:58:15;-0.40;74.89
75170;SHT31;63749;49.186;9.222;2022-12-18T13:01:10;-0.25;74.62
75170;SHT31;63749;49.186;9.222;2022-12-18T13:03:54;-0.13;73.98
75170;SHT31;63749;49.186;9.222;2022-12-18T13:06:32;-0.11;74.46
75170;SHT31;63749;49.186;9.222;2022-12-18T13:09:00;-0.23;73.71
75170;SHT31;63749;49.186;9.222;2022-12-18T13:14:31;-0.30;75.18
75170;SHT31;63749;49.186;9.222;2022-12-18T13:20:01;-0.54;75.33
75170;SHT31;63749;49.186;9.222;2022-12-18T13:22:31;-0.60;75.67
75170;SHT31;63749;49.186;9.222;2022-12-18T13:24:58;-0.52;75.29
75170;SHT31;63749;49.186;9.222;2022-12-18T13:30:56;-0.49;75.45
75170;SHT31;63749;49.186;9.222;2022-12-18T13:41:48;-0.64;76.83
75170;SHT31;63749;49.186;9.222;2022-12-18T13:47:03;-0.48;75.84
75170;SHT31;63749;49.186;9.222;2022-12-18T13:49:38;-0.54;75.97
75170;SHT31;63749;49.186;9.222;2022-12-18T13:52:16;-0.48;76.12
75170;SHT31;63749;49.186;9.222;2022-12-18T13:54:42;-0.53;76.08
75170;SHT31;63749;49.186;9.222;2022-12-18T13:59:52;-0.61;76.37
75170;SHT31;63749;49.186;9.222;2022-12-18T14:02:22;-0.44;76.48
75170;SHT31;63749;49.186;9.222;2022-12-18T14:04:49;-0.52;76.23
75170;SHT31;63749;49.186;9.222;2022-12-18T14:07:16;-0.74;76.69
75170;SHT31;63749;49.186;9.222;2022-12-18T14:09:45;-0.61;76.51
75170;SHT31;63749;49.186;9.222;2022-12-18T14:12:31;-0.66;77.03
75170;SHT31;63749;49.186;9.222;2022-12-18T14:17:59;0.98;96.75
75170;SHT31;63749;49.186;9.222;2022-12-18T14:20:26;1.46;88.65
75170;SHT31;63749;49.186;9.222;2022-12-18T14:22:52;1.69;80.78
75170;SHT31;63749;49.186;9.222;2022-12-18T14:30:37;1.12;75.61
75170;SHT31;63749;49.186;9.222;2022-12-18T14:33:19;2.11;77.98
75170;SHT31;63749;49.186;9.222;2022-12-18T14:35:58;1.73;75.61
75170;SHT31;63749;49.186;9.222;2022-12-18T14:38:26;1.71;73.79
75170;SHT31;63749;49.186;9.222;2022-12-18T14:40:57;1.62;72.90
75170;SHT31;63749;49.186;9.222;2022-12-18T14:43:27;1.39;74.03
75170;SHT31;63749;49.186;9.222;2022-12-18T14:45:54;2.17;75.25
75170;SHT31;63749;49.186;9.222;2022-12-18T14:48:21;2.60;73.61
75170;SHT31;63749;49.186;9.222;2022-12-18T14:50:55;2.21;75.19
75170;SHT31;63749;49.186;9.222;2022-12-18T14:53:32;2.13;73.30
75170;SHT31;63749;49.186;9.222;2022-12-18T14:55:58;2.38;72.11
75170;SHT31;63749;49.186;9.222;2022-12-18T14:58:23;2.17;71.58
75170;SHT31;63749;49.186;9.222;2022-12-18T15:00:48;1.55;69.97
75170;SHT31;63749;49.186;9.222;2022-12-18T15:03:18;2.17;74.47
75170;SHT31;63749;49.186;9.222;2022-12-18T15:05:44;1.25;71.44
75170;SHT31;63749;49.186;9.222;2022-12-18T15:08:36;1.27;73.42
75170;SHT31;63749;49.186;9.222;2022-12-18T15:11:02;1.36;71.29
75170;SHT31;63749;49.186;9.222;2022-12-18T15:13:28;0.12;73.12
75170;SHT31;63749;49.186;9.222;2022-12-18T15:15:56;-0.59;76.27
75170;SHT31;63749;49.186;9.222;2022-12-18T15:18:32;-1.01;77.95
75170;SHT31;63749;49.186;9.222;2022-12-18T15:21:10;-1.34;79.73
75170;SHT31;63749;49.186;9.222;2022-12-18T15:23:49;-1.49;79.92
75170;SHT31;63749;49.186;9.222;2022-12-18T15:26:17;-1.67;80.86
75170;SHT31;63749;49.186;9.222;2022-12-18T15:28:51;-1.83;80.49
75170;SHT31;63749;49.186;9.222;2022-12-18T15:31:32;-1.95;81.60
75170;SHT31;63749;49.186;9.222;2022-12-18T15:34:20;-2.07;81.44
75170;SHT31;63749;49.186;9.222;2022-12-18T15:36:46;-2.12;81.76
75170;SHT31;63749;49.186;9.222;2022-12-18T15:39:12;-2.24;82.18
75170;SHT31;63749;49.186;9.222;2022-12-18T15:41:38;-2.32;82.20
75170;SHT31;63749;49.186;9.222;2022-12-18T15:44:22;-2.44;82.53
75170;SHT31;63749;49.186;9.222;2022-12-18T15:46:47;-2.53;83.10
75170;SHT31;63749;49.186;9.222;2022-12-18T15:49:13;-2.56;82.77
75170;SHT31;63749;49.186;9.222;2022-12-18T15:51:38;-2.65;83.21
75170;SHT31;63749;49.186;9.222;2022-12-18T15:54:06;-2.66;83.54
75170;SHT31;63749;49.186;9.222;2022-12-18T15:56:34;-2.72;83.42
75170;SHT31;63749;49.186;9.222;2022-12-18T15:59:19;-2.80;83.64
75170;SHT31;63749;49.186;9.222;2022-12-18T16:01:50;-2.83;83.95
75170;SHT31;63749;49.186;9.222;2022-12-18T16:04:18;-2.86;83.81
75170;SHT31;63749;49.186;9.222;2022-12-18T16:06:45;-2.87;83.97
75170;SHT31;63749;49.186;9.222;2022-12-18T16:09:11;-2.94;84.42
75170;SHT31;63749;49.186;9.222;2022-12-18T16:11:37;-2.97;84.68
75170;SHT31;63749;49.186;9.222;2022-12-18T16:16:46;-2.99;85.83
75170;SHT31;63749;49.186;9.222;2022-12-18T16:19:12;-3.07;85.01
75170;SHT31;63749;49.186;9.222;2022-12-18T16:21:38;-3.01;85.56
75170;SHT31;63749;49.186;9.222;2022-12-18T16:24:04;-3.07;85.29
75170;SHT31;63749;49.186;9.222;2022-12-18T16:26:29;-3.04;85.42
75170;SHT31;63749;49.186;9.222;2022-12-18T16:28:57;-3.00;84.83
75170;SHT31;63749;49.186;9.222;2022-12-18T16:31:22;-2.91;84.74
75170;SHT31;63749;49.186;9.222;2022-12-18T16:33:48;-2.96;84.74
75170;SHT31;63749;49.186;9.222;2022-12-18T16:36:13;-2.91;84.06
75170;SHT31;63749;49.186;9.222;2022-12-18T16:38:39;-2.89;84.13
75170;SHT31;63749;49.186;9.222;2022-12-18T16:41:18;-2.86;84.11
75170;SHT31;63749;49.186;9.222;2022-12-18T16:43:56;-2.87;84.24
75170;SHT31;63749;49.186;9.222;2022-12-18T16:46:21;-2.69;84.69
75170;SHT31;63749;49.186;9.222;2022-12-18T16:48:47;-2.76;83.89
75170;SHT31;63749;49.186;9.222;2022-12-18T16:51:12;-2.76;84.02
75170;SHT31;63749;49.186;9.222;2022-12-18T16:53:37;-2.70;83.38
75170;SHT31;63749;49.186;9.222;2022-12-18T16:56:03;-2.63;83.59
75170;SHT31;63749;49.186;9.222;2022-12-18T16:58:28;-2.65;83.04
75170;SHT31;63749;49.186;9.222;2022-12-18T17:00:53;-2.59;83.38
75170;SHT31;63749;49.186;9.222;2022-12-18T17:03:19;-2.66;83.09
75170;SHT31;63749;49.186;9.222;2022-12-18T17:05:44;-2.63;83.62
75170;SHT31;63749;49.186;9.222;2022-12-18T17:08:09;-2.62;83.55
75170;SHT31;63749;49.186;9.222;2022-12-18T17:10:35;-2.63;83.23
75170;SHT31;63749;49.186;9.222;2022-12-18T17:13:00;-2.68;83.39
75170;SHT31;63749;49.186;9.222;2022-12-18T17:15:25;-2.66;83.32
75170;SHT31;63749;49.186;9.222;2022-12-18T17:17:51;-2.66;83.92
75170;SHT31;63749;49.186;9.222;2022-12-18T17:20:16;-2.68;83.35
75170;SHT31;63749;49.186;9.222;2022-12-18T17:22:41;-2.63;83.59
75170;SHT31;63749;49.186;9.222;2022-12-18T17:25:07;-2.68;83.11
75170;SHT31;63749;49.186;9.222;2022-12-18T17:27:32;-2.65;83.66
75170;SHT31;63749;49.186;9.222;2022-12-18T17:29:58;-2.69;83.43
75170;SHT31;63749;49.186;9.222;2022-12-18T17:32:23;-2.69;83.54
75170;SHT31;63749;49.186;9.222;2022-12-18T17:34:48;-2.70;83.68